Time;durP1;ratioP1;P1;durP2;ratioP2;P2;SDS_P1;SDS_P2;PMS_P1;PMS_P2;Temp;Humidity;BMP_temperature;BMP_pressure;BME280_temperature;BME280_humidity;BME280_pressure;Samples;Min_cycle;Max_cycle;Signal;HPM_P1;HPM_P2
2022/07/16 00:01:24;;;;;;;7.10;2.10;;;;;;;;;;5004078;28;20388;-61
2022/07/16 00:03:58;;;;;;;4.00;1.80;;;;;;;;;;4999915;28;20095;-60
2022/07/16 00:06:26;;;;;;;2.22;1.38;;;;;;;;;;5004418;28;20558;-61
2022/07/16 00:08:52;;;;;;;3.83;1.73;;;;;;;;;;5000236;28;20026;-60
2022/07/16 00:11:18;;;;;;;2.40;1.30;;;;;;;;;;5003362;28;20042;-60
2022/07/16 00:13:44;;;;;;;4.68;1.55;;;;;;;;;;4999965;28;20049;-60
2022/07/16 00:16:10;;;;;;;3.53;1.50;;;;;;;;;;5004326;28;20050;-60
2022/07/16 00:21:21;;;;;;;2.78;1.30;;;;;;;;;;5002022;28;20057;-60
2022/07/16 00:23:46;;;;;;;2.47;1.45;;;;;;;;;;5003639;28;20033;-59
2022/07/16 00:26:12;;;;;;;2.92;1.33;;;;;;;;;;4999377;28;20044;-60
2022/07/16 00:28:37;;;;;;;5.47;1.83;;;;;;;;;;5006743;28;20119;-60
2022/07/16 00:31:03;;;;;;;3.85;1.60;;;;;;;;;;5001822;28;20120;-59
2022/07/16 00:33:29;;;;;;;4.40;1.80;;;;;;;;;;5002070;28;20060;-59
2022/07/16 00:35:54;;;;;;;5.45;1.70;;;;;;;;;;5003681;28;20058;-60
2022/07/16 00:38:19;;;;;;;4.80;1.67;;;;;;;;;;5004752;28;20424;-61
2022/07/16 00:40:45;;;;;;;4.28;2.15;;;;;;;;;;5006668;28;20073;-61
2022/07/16 00:43:12;;;;;;;4.15;2.30;;;;;;;;;;5003592;28;20077;-61
2022/07/16 00:45:38;;;;;;;4.35;2.45;;;;;;;;;;5003119;28;20049;-61
2022/07/16 00:48:04;;;;;;;5.65;2.90;;;;;;;;;;5003686;28;20078;-63
2022/07/16 00:50:29;;;;;;;7.90;2.65;;;;;;;;;;5005258;28;20086;-62
2022/07/16 00:52:55;;;;;;;5.45;2.70;;;;;;;;;;5003242;28;20436;-60
2022/07/16 00:55:20;;;;;;;7.63;2.72;;;;;;;;;;5003718;28;20117;-60
2022/07/16 00:57:46;;;;;;;4.82;2.80;;;;;;;;;;5002680;28;20065;-60
2022/07/16 01:00:14;;;;;;;5.13;2.58;;;;;;;;;;5005564;28;20033;-61
2022/07/16 01:02:40;;;;;;;6.45;2.22;;;;;;;;;;5005454;28;20157;-60
2022/07/16 01:05:06;;;;;;;5.75;2.28;;;;;;;;;;5003043;28;20487;-60
2022/07/16 01:07:31;;;;;;;5.28;2.70;;;;;;;;;;5005390;28;20623;-62
2022/07/16 01:09:58;;;;;;;4.45;2.53;;;;;;;;;;5002929;28;20487;-61
2022/07/16 01:12:25;;;;;;;4.15;1.90;;;;;;;;;;5001773;28;20030;-60
2022/07/16 01:14:51;;;;;;;4.50;2.20;;;;;;;;;;5008387;28;20057;-62
2022/07/16 01:17:17;;;;;;;4.60;1.83;;;;;;;;;;5004598;28;20050;-60
2022/07/16 01:19:42;;;;;;;3.60;1.92;;;;;;;;;;5003701;28;20572;-61
2022/07/16 01:22:16;;;;;;;5.97;2.00;;;;;;;;;;5001209;28;20120;-62
2022/07/16 01:24:41;;;;;;;3.95;1.90;;;;;;;;;;5004968;28;20489;-62
2022/07/16 01:27:07;;;;;;;2.78;1.90;;;;;;;;;;5003646;28;20044;-63
2022/07/16 01:29:32;;;;;;;4.18;1.52;;;;;;;;;;5003089;28;20049;-62
2022/07/16 01:31:57;;;;;;;4.30;1.35;;;;;;;;;;5001088;28;20318;-61
2022/07/16 01:34:26;;;;;;;3.90;1.55;;;;;;;;;;5002922;28;20124;-62
2022/07/16 01:36:59;;;;;;;5.75;1.60;;;;;;;;;;5000013;28;20415;-60
2022/07/16 01:39:27;;;;;;;2.08;1.40;;;;;;;;;;5000368;28;20181;-60
2022/07/16 01:41:54;;;;;;;2.47;1.40;;;;;;;;;;5006516;28;20103;-62
2022/07/16 01:44:20;;;;;;;2.05;1.30;;;;;;;;;;5002097;28;20103;-62
2022/07/16 01:46:45;;;;;;;4.90;1.42;;;;;;;;;;5003013;28;20484;-62
2022/07/16 01:49:11;;;;;;;2.08;1.48;;;;;;;;;;5002813;28;20050;-62
2022/07/16 01:51:36;;;;;;;2.50;1.25;;;;;;;;;;5001746;28;20449;-62
2022/07/16 01:54:02;;;;;;;2.15;1.30;;;;;;;;;;5007582;28;20029;-62
2022/07/16 01:56:27;;;;;;;5.50;1.50;;;;;;;;;;5000035;28;20069;-63
2022/07/16 01:58:52;;;;;;;3.03;1.40;;;;;;;;;;5002953;28;20412;-61
2022/07/16 02:01:18;;;;;;;4.65;1.30;;;;;;;;;;5000204;28;21413;-64
2022/07/16 02:03:43;;;;;;;2.38;1.00;;;;;;;;;;5004115;28;20064;-63
2022/07/16 02:06:08;;;;;;;2.53;1.30;;;;;;;;;;5004766;28;20034;-63
2022/07/16 02:08:34;;;;;;;3.20;1.20;;;;;;;;;;5002210;28;20056;-62
2022/07/16 02:10:59;;;;;;;2.03;1.60;;;;;;;;;;5004702;28;20061;-61
2022/07/16 02:13:25;;;;;;;2.28;1.20;;;;;;;;;;5002469;28;20053;-61
2022/07/16 02:15:50;;;;;;;2.60;1.30;;;;;;;;;;5004706;28;20125;-61
2022/07/16 02:18:15;;;;;;;3.35;1.45;;;;;;;;;;5004736;28;20041;-62
2022/07/16 02:20:41;;;;;;;3.35;1.45;;;;;;;;;;5004241;28;20112;-61
2022/07/16 02:23:06;;;;;;;4.07;1.58;;;;;;;;;;5004690;28;20052;-61
2022/07/16 02:25:31;;;;;;;4.60;1.33;;;;;;;;;;4995383;28;20128;-62
2022/07/16 02:28:06;;;;;;;3.40;1.23;;;;;;;;;;5002129;28;20080;-62
2022/07/16 02:30:31;;;;;;;3.53;1.30;;;;;;;;;;5000370;28;20044;-61
2022/07/16 02:32:57;;;;;;;1.20;1.10;;;;;;;;;;5002083;28;20034;-60
2022/07/16 02:35:22;;;;;;;3.45;1.15;;;;;;;;;;5002746;28;20472;-63
2022/07/16 02:37:48;;;;;;;1.83;1.20;;;;;;;;;;5002480;28;20528;-53
2022/07/16 02:40:14;;;;;;;3.50;1.40;;;;;;;;;;5002955;28;20056;-55
2022/07/16 02:42:40;;;;;;;4.32;1.40;;;;;;;;;;5004847;28;20195;-57
2022/07/16 02:45:07;;;;;;;2.30;1.40;;;;;;;;;;5003018;28;20040;-55
2022/07/16 02:47:33;;;;;;;3.15;1.65;;;;;;;;;;5003711;28;20056;-55
2022/07/16 02:49:58;;;;;;;2.40;1.30;;;;;;;;;;5002617;28;20057;-54
2022/07/16 02:52:24;;;;;;;3.00;1.38;;;;;;;;;;5000909;28;20050;-56
2022/07/16 02:54:49;;;;;;;3.25;1.40;;;;;;;;;;5001152;28;20121;-55
2022/07/16 02:57:15;;;;;;;3.15;1.20;;;;;;;;;;5002809;28;20113;-56
2022/07/16 02:59:40;;;;;;;2.25;1.35;;;;;;;;;;5002716;28;20431;-58
2022/07/16 03:02:06;;;;;;;2.90;1.38;;;;;;;;;;5004300;28;20407;-55
2022/07/16 03:04:32;;;;;;;2.95;1.10;;;;;;;;;;5002665;28;20050;-58
2022/07/16 03:06:57;;;;;;;2.50;1.20;;;;;;;;;;5004837;28;20053;-57
2022/07/16 03:09:22;;;;;;;2.63;1.40;;;;;;;;;;5001460;28;20117;-57
2022/07/16 03:11:48;;;;;;;2.88;1.20;;;;;;;;;;5003427;28;20297;-58
2022/07/16 03:14:13;;;;;;;2.40;1.10;;;;;;;;;;5002283;28;20038;-56
2022/07/16 03:16:38;;;;;;;1.90;1.20;;;;;;;;;;5002686;28;20070;-57
2022/07/16 03:19:04;;;;;;;1.75;1.25;;;;;;;;;;5005673;28;20419;-58
2022/07/16 03:21:29;;;;;;;3.22;1.35;;;;;;;;;;5006785;28;20036;-58
2022/07/16 03:23:54;;;;;;;1.20;1.00;;;;;;;;;;5006895;28;20038;-66
2022/07/16 03:26:20;;;;;;;3.10;1.20;;;;;;;;;;5004533;28;20057;-66
2022/07/16 03:28:45;;;;;;;1.77;1.13;;;;;;;;;;5008387;28;20475;-65
2022/07/16 03:31:11;;;;;;;2.85;1.40;;;;;;;;;;5006384;28;20526;-66
2022/07/16 03:33:36;;;;;;;4.22;1.50;;;;;;;;;;5007190;28;20058;-65
2022/07/16 03:36:01;;;;;;;2.63;1.40;;;;;;;;;;5009220;28;20033;-65
2022/07/16 03:41:11;;;;;;;3.10;1.55;;;;;;;;;;5014204;28;20072;-66
2022/07/16 03:43:36;;;;;;;4.30;1.33;;;;;;;;;;5006054;28;20050;-66
2022/07/16 03:46:01;;;;;;;1.60;1.00;;;;;;;;;;5008224;28;20060;-66
2022/07/16 03:48:27;;;;;;;3.22;1.30;;;;;;;;;;5002258;28;20038;-65
2022/07/16 03:50:52;;;;;;;4.30;1.27;;;;;;;;;;5009331;28;20026;-65
2022/07/16 03:53:17;;;;;;;1.38;1.17;;;;;;;;;;5007386;28;20129;-65
2022/07/16 03:55:43;;;;;;;3.95;1.40;;;;;;;;;;5007340;28;20096;-66
2022/07/16 03:58:08;;;;;;;2.78;1.55;;;;;;;;;;5008160;28;20050;-65
2022/07/16 04:00:34;;;;;;;2.72;1.30;;;;;;;;;;5007083;28;20026;-65
2022/07/16 04:02:59;;;;;;;3.72;1.30;;;;;;;;;;5006090;28;20061;-66
2022/07/16 04:05:24;;;;;;;2.15;1.20;;;;;;;;;;5006315;28;20491;-67
2022/07/16 04:07:50;;;;;;;3.90;1.35;;;;;;;;;;5006745;28;20478;-65
2022/07/16 04:10:16;;;;;;;2.90;1.20;;;;;;;;;;5004573;28;20077;-65
2022/07/16 04:12:41;;;;;;;3.20;1.20;;;;;;;;;;5006252;28;20078;-65
2022/07/16 04:15:07;;;;;;;2.70;1.30;;;;;;;;;;5005127;28;20026;-65
2022/07/16 04:17:32;;;;;;;2.38;1.20;;;;;;;;;;5003641;28;20046;-64
2022/07/16 04:19:58;;;;;;;4.72;1.73;;;;;;;;;;5004636;28;20456;-64
2022/07/16 04:22:23;;;;;;;4.75;1.10;;;;;;;;;;5002375;28;20129;-65
2022/07/16 04:24:49;;;;;;;2.50;1.10;;;;;;;;;;5007631;28;20041;-65
2022/07/16 04:27:14;;;;;;;1.63;1.10;;;;;;;;;;5007543;28;20452;-66
2022/07/16 04:29:39;;;;;;;4.00;1.10;;;;;;;;;;5003546;28;20043;-65
2022/07/16 04:32:05;;;;;;;1.48;1.00;;;;;;;;;;5007005;28;20054;-66
2022/07/16 04:34:31;;;;;;;4.15;1.30;;;;;;;;;;5003824;28;20060;-64
2022/07/16 04:36:56;;;;;;;3.95;1.10;;;;;;;;;;5007073;28;20045;-65
2022/07/16 04:39:22;;;;;;;2.88;1.30;;;;;;;;;;5005332;28;20049;-65
2022/07/16 04:41:47;;;;;;;4.05;1.30;;;;;;;;;;5004624;28;20156;-65
2022/07/16 04:44:12;;;;;;;2.10;1.40;;;;;;;;;;5007131;28;20160;-64
2022/07/16 04:46:38;;;;;;;5.40;1.30;;;;;;;;;;5007489;28;20050;-64
2022/07/16 04:49:03;;;;;;;3.50;1.38;;;;;;;;;;5004229;28;20042;-65
2022/07/16 04:51:28;;;;;;;2.97;1.30;;;;;;;;;;5004986;28;20112;-66
2022/07/16 04:53:54;;;;;;;4.07;1.40;;;;;;;;;;5005256;28;20597;-66
2022/07/16 04:56:19;;;;;;;2.97;1.20;;;;;;;;;;5004405;28;20050;-65
2022/07/16 04:58:45;;;;;;;3.13;1.33;;;;;;;;;;5005493;28;20103;-64
2022/07/16 05:01:10;;;;;;;2.55;1.30;;;;;;;;;;5006747;28;20097;-65
2022/07/16 05:03:35;;;;;;;4.22;1.30;;;;;;;;;;5004758;28;21305;-65
2022/07/16 05:06:01;;;;;;;4.70;1.20;;;;;;;;;;5008152;28;20520;-66
2022/07/16 05:08:26;;;;;;;2.58;1.20;;;;;;;;;;5004534;28;20045;-66
2022/07/16 05:10:52;;;;;;;1.42;1.10;;;;;;;;;;5007161;28;20053;-63
2022/07/16 05:13:17;;;;;;;2.25;1.40;;;;;;;;;;5005250;28;20050;-63
2022/07/16 05:15:43;;;;;;;1.65;1.10;;;;;;;;;;5005285;28;20120;-64
2022/07/16 05:18:09;;;;;;;2.25;1.20;;;;;;;;;;5003741;28;20046;-63
2022/07/16 05:20:34;;;;;;;1.92;1.20;;;;;;;;;;5005762;28;20073;-64
2022/07/16 05:23:00;;;;;;;5.82;1.30;;;;;;;;;;5004280;28;20046;-64
2022/07/16 05:25:26;;;;;;;3.22;1.30;;;;;;;;;;5004980;28;20057;-64
2022/07/16 05:27:51;;;;;;;3.92;2.20;;;;;;;;;;4999785;28;20087;-65
2022/07/16 05:30:17;;;;;;;2.63;1.23;;;;;;;;;;5001969;28;20030;-63
2022/07/16 05:32:43;;;;;;;2.03;1.23;;;;;;;;;;5004326;28;20145;-63
2022/07/16 05:35:15;;;;;;;2.58;1.30;;;;;;;;;;5002943;28;20092;-63
2022/07/16 05:37:41;;;;;;;1.60;1.40;;;;;;;;;;5001556;28;20054;-63
2022/07/16 05:40:07;;;;;;;2.35;1.40;;;;;;;;;;5003922;28;20050;-64
2022/07/16 05:42:33;;;;;;;2.72;1.20;;;;;;;;;;4997250;28;20037;-63
2022/07/16 05:44:59;;;;;;;3.65;1.60;;;;;;;;;;5001975;28;20033;-63
2022/07/16 05:47:24;;;;;;;5.10;1.40;;;;;;;;;;5002807;28;20053;-63
2022/07/16 05:49:50;;;;;;;3.53;1.60;;;;;;;;;;5004888;28;20511;-63
2022/07/16 05:52:15;;;;;;;4.70;1.63;;;;;;;;;;5001345;28;20053;-63
2022/07/16 05:54:41;;;;;;;5.32;2.00;;;;;;;;;;5000965;28;20177;-63
2022/07/16 05:57:06;;;;;;;3.85;1.70;;;;;;;;;;5007182;28;20029;-63
2022/07/16 05:59:31;;;;;;;3.58;1.90;;;;;;;;;;5002900;28;20569;-63
2022/07/16 06:01:57;;;;;;;3.70;2.15;;;;;;;;;;5004160;28;20046;-64
2022/07/16 06:04:22;;;;;;;10.63;1.98;;;;;;;;;;5001397;28;20126;-63
2022/07/16 06:06:48;;;;;;;3.88;1.75;;;;;;;;;;5004487;28;20550;-64
2022/07/16 06:09:14;;;;;;;3.78;1.90;;;;;;;;;;5004705;28;20052;-63
2022/07/16 06:11:40;;;;;;;3.35;1.95;;;;;;;;;;5002883;28;20042;-63
2022/07/16 06:14:05;;;;;;;7.68;2.40;;;;;;;;;;5005072;28;20050;-64
2022/07/16 06:16:30;;;;;;;3.47;1.90;;;;;;;;;;5000234;28;20049;-63
2022/07/16 06:18:56;;;;;;;4.38;1.90;;;;;;;;;;5003209;28;20396;-65
2022/07/16 06:21:21;;;;;;;5.53;2.30;;;;;;;;;;5004390;28;20033;-65
2022/07/16 06:23:47;;;;;;;5.60;1.88;;;;;;;;;;5004509;28;20030;-66
2022/07/16 06:26:12;;;;;;;7.22;2.05;;;;;;;;;;5004715;28;20061;-66
2022/07/16 06:28:37;;;;;;;5.40;2.22;;;;;;;;;;5001057;28;20080;-65
2022/07/16 06:31:03;;;;;;;4.63;1.80;;;;;;;;;;5003614;28;20046;-65
2022/07/16 06:33:28;;;;;;;5.18;1.45;;;;;;;;;;5004290;28;20300;-65
2022/07/16 06:35:54;;;;;;;2.08;1.30;;;;;;;;;;5005263;28;20449;-64
2022/07/16 06:38:19;;;;;;;4.93;1.50;;;;;;;;;;5003202;28;20061;-64
2022/07/16 06:40:45;;;;;;;5.22;1.63;;;;;;;;;;5003219;28;20470;-64
2022/07/16 06:43:11;;;;;;;2.83;1.40;;;;;;;;;;5004536;28;20510;-64
2022/07/16 06:45:37;;;;;;;7.55;1.88;;;;;;;;;;5003629;28;20057;-64
2022/07/16 06:48:03;;;;;;;3.75;1.60;;;;;;;;;;5005539;28;20030;-65
2022/07/16 06:50:28;;;;;;;8.15;2.88;;;;;;;;;;5001593;28;20050;-64
2022/07/16 06:52:54;;;;;;;6.65;1.95;;;;;;;;;;5007042;28;20046;-64
2022/07/16 06:55:19;;;;;;;5.10;1.83;;;;;;;;;;5005366;28;20153;-65
2022/07/16 06:57:45;;;;;;;8.07;1.83;;;;;;;;;;5004585;28;20101;-64
2022/07/16 07:00:11;;;;;;;3.33;1.38;;;;;;;;;;5002999;28;20039;-65
2022/07/16 07:02:36;;;;;;;3.00;1.45;;;;;;;;;;5007588;28;20128;-64
2022/07/16 07:05:02;;;;;;;4.30;1.50;;;;;;;;;;5006302;28;20129;-64
2022/07/16 07:07:27;;;;;;;5.95;1.20;;;;;;;;;;5007084;28;20141;-65
2022/07/16 07:09:52;;;;;;;3.05;1.20;;;;;;;;;;5009377;28;20057;-65
2022/07/16 07:12:18;;;;;;;5.88;2.20;;;;;;;;;;5005493;28;20060;-64
2022/07/16 07:14:43;;;;;;;5.60;1.30;;;;;;;;;;5006178;28;20030;-65
2022/07/16 07:17:08;;;;;;;4.70;1.40;;;;;;;;;;5007128;28;20117;-69
2022/07/16 07:19:34;;;;;;;3.53;1.30;;;;;;;;;;5006016;28;20054;-68
2022/07/16 07:22:00;;;;;;;3.88;1.10;;;;;;;;;;5005550;28;20380;-65
2022/07/16 07:24:25;;;;;;;4.80;1.63;;;;;;;;;;5006973;28;20161;-64
2022/07/16 07:26:50;;;;;;;7.53;1.90;;;;;;;;;;5007065;28;20026;-64
2022/07/16 07:29:16;;;;;;;5.75;1.00;;;;;;;;;;5007642;28;20054;-65
2022/07/16 07:31:41;;;;;;;2.25;1.30;;;;;;;;;;5007399;28;20061;-66
2022/07/16 07:34:06;;;;;;;5.10;0.93;;;;;;;;;;5005533;28;20056;-66
2022/07/16 07:36:32;;;;;;;5.03;1.25;;;;;;;;;;5005800;28;20034;-65
2022/07/16 07:38:57;;;;;;;4.63;1.60;;;;;;;;;;5006001;28;20064;-66
2022/07/16 07:41:22;;;;;;;5.55;1.45;;;;;;;;;;5008521;28;20045;-65
2022/07/16 07:43:48;;;;;;;4.05;1.33;;;;;;;;;;5005608;28;20209;-65
2022/07/16 07:46:13;;;;;;;4.82;1.70;;;;;;;;;;5005096;28;20062;-64
2022/07/16 07:48:39;;;;;;;6.50;1.75;;;;;;;;;;5007713;28;20514;-64
2022/07/16 07:51:04;;;;;;;5.50;1.50;;;;;;;;;;5008743;28;20042;-65
2022/07/16 07:53:29;;;;;;;6.15;1.73;;;;;;;;;;5008465;28;20034;-64
2022/07/16 07:55:55;;;;;;;2.05;0.90;;;;;;;;;;5007603;28;20050;-64
2022/07/16 07:58:21;;;;;;;4.13;1.45;;;;;;;;;;5005181;28;20057;-64
2022/07/16 08:00:46;;;;;;;1.48;1.20;;;;;;;;;;5005749;28;20482;-65
2022/07/16 08:03:12;;;;;;;4.18;1.20;;;;;;;;;;5009119;28;20069;-65
2022/07/16 08:05:37;;;;;;;5.45;1.13;;;;;;;;;;5002954;28;20046;-64
2022/07/16 08:08:03;;;;;;;3.85;1.10;;;;;;;;;;5008989;28;20136;-64
2022/07/16 08:10:29;;;;;;;3.83;1.40;;;;;;;;;;5005309;28;20514;-65
2022/07/16 08:12:54;;;;;;;3.38;1.10;;;;;;;;;;5006475;28;20084;-63
2022/07/16 08:15:20;;;;;;;2.63;1.10;;;;;;;;;;5002776;28;20129;-65
2022/07/16 08:17:45;;;;;;;1.45;0.90;;;;;;;;;;4986185;28;20114;-65
2022/07/16 08:20:11;;;;;;;4.20;0.82;;;;;;;;;;5001555;28;20074;-65
2022/07/16 08:22:37;;;;;;;2.83;1.20;;;;;;;;;;5005994;28;20077;-65
2022/07/16 08:27:47;;;;;;;4.30;0.93;;;;;;;;;;5001617;28;20140;-65
2022/07/16 08:30:12;;;;;;;2.38;1.08;;;;;;;;;;5001082;28;20455;-64
2022/07/16 08:32:38;;;;;;;1.73;1.02;;;;;;;;;;5001519;28;20049;-64
2022/07/16 08:35:04;;;;;;;4.18;1.23;;;;;;;;;;5006464;28;20057;-64
2022/07/16 08:37:41;;;;;;;2.03;1.20;;;;;;;;;;5005964;28;20116;-64
2022/07/16 08:40:10;;;;;;;4.40;0.90;;;;;;;;;;5004547;28;20054;-64
2022/07/16 08:42:36;;;;;;;3.67;1.15;;;;;;;;;;5004715;28;20044;-64
2022/07/16 08:45:04;;;;;;;2.28;1.10;;;;;;;;;;5000236;28;20037;-65
2022/07/16 08:47:30;;;;;;;3.28;1.13;;;;;;;;;;5002081;28;20078;-64
2022/07/16 08:49:58;;;;;;;1.60;1.10;;;;;;;;;;5005838;28;20093;-65
2022/07/16 08:52:26;;;;;;;3.38;1.23;;;;;;;;;;5008539;28;20049;-65
2022/07/16 08:54:53;;;;;;;2.50;1.40;;;;;;;;;;5004723;28;20511;-63
2022/07/16 08:57:19;;;;;;;3.30;1.30;;;;;;;;;;5004676;28;20547;-64
2022/07/16 08:59:44;;;;;;;2.67;1.10;;;;;;;;;;5005090;28;20125;-62
2022/07/16 09:02:12;;;;;;;3.05;1.13;;;;;;;;;;5004564;28;20054;-63
2022/07/16 09:04:38;;;;;;;3.60;1.25;;;;;;;;;;5004256;28;20377;-63
2022/07/16 09:07:03;;;;;;;4.65;0.98;;;;;;;;;;5007279;28;20053;-63
2022/07/16 09:09:28;;;;;;;2.13;1.30;;;;;;;;;;5004955;28;20037;-63
2022/07/16 09:11:54;;;;;;;2.63;1.20;;;;;;;;;;5004406;28;20037;-63
2022/07/16 09:14:20;;;;;;;2.45;1.10;;;;;;;;;;5000808;28;20606;-66
2022/07/16 09:16:51;;;;;;;2.40;1.10;;;;;;;;;;5002799;28;21125;-67
2022/07/16 09:19:18;;;;;;;1.30;0.95;;;;;;;;;;5006434;28;20064;-64
2022/07/16 09:22:05;;;;;;;4.03;1.10;;;;;;;;;;5003140;28;20132;-63
2022/07/16 09:24:54;;;;;;;2.85;1.30;;;;;;;;;;5005575;28;20029;-63
2022/07/16 09:27:23;;;;;;;2.25;1.33;;;;;;;;;;5002891;28;20064;-63
2022/07/16 09:29:52;;;;;;;2.08;1.08;;;;;;;;;;5005615;28;20034;-61
2022/07/16 09:32:34;;;;;;;4.07;1.38;;;;;;;;;;5002801;28;20053;-61
2022/07/16 09:35:16;;;;;;;4.03;1.20;;;;;;;;;;5005883;28;20101;-61
2022/07/16 09:37:54;;;;;;;4.18;1.30;;;;;;;;;;5002579;28;20159;-61
2022/07/16 09:40:36;;;;;;;4.15;1.27;;;;;;;;;;5001662;28;20053;-62
2022/07/16 09:43:24;;;;;;;3.15;1.20;;;;;;;;;;4998336;28;20498;-64
2022/07/16 09:46:01;;;;;;;2.03;1.10;;;;;;;;;;5004206;28;20050;-62
2022/07/16 09:48:27;;;;;;;2.95;1.20;;;;;;;;;;5004538;28;20026;-62
2022/07/16 09:50:55;;;;;;;2.90;0.93;;;;;;;;;;5000539;28;20096;-63
2022/07/16 09:53:23;;;;;;;1.92;1.20;;;;;;;;;;5001692;28;20203;-62
2022/07/16 09:56:02;;;;;;;2.80;1.10;;;;;;;;;;5000519;28;20069;-63
2022/07/16 09:58:29;;;;;;;3.08;1.27;;;;;;;;;;5003871;28;20474;-63
2022/07/16 10:00:55;;;;;;;2.25;1.20;;;;;;;;;;5003909;28;20099;-61
2022/07/16 10:03:22;;;;;;;2.28;0.93;;;;;;;;;;5005102;28;20490;-63
2022/07/16 10:05:47;;;;;;;3.15;1.25;;;;;;;;;;5000622;28;20112;-64
2022/07/16 10:08:16;;;;;;;5.10;1.42;;;;;;;;;;5003375;28;20594;-63
2022/07/16 10:10:43;;;;;;;2.03;1.10;;;;;;;;;;5003485;28;20442;-64
2022/07/16 10:13:09;;;;;;;4.22;1.10;;;;;;;;;;5001807;28;20074;-67
2022/07/16 10:15:35;;;;;;;6.40;1.05;;;;;;;;;;4999853;28;20156;-66
2022/07/16 10:18:01;;;;;;;4.45;1.17;;;;;;;;;;5006395;28;20116;-66
2022/07/16 10:20:26;;;;;;;1.58;1.10;;;;;;;;;;5002228;28;20095;-62
2022/07/16 10:22:52;;;;;;;1.83;1.00;;;;;;;;;;5001805;28;20133;-63
2022/07/16 10:25:22;;;;;;;1.65;1.25;;;;;;;;;;5001013;28;20510;-63
2022/07/16 10:27:48;;;;;;;4.13;1.30;;;;;;;;;;5004541;28;20045;-65
2022/07/16 10:30:31;;;;;;;4.78;1.30;;;;;;;;;;5005125;28;20073;-63
2022/07/16 10:33:00;;;;;;;2.33;1.15;;;;;;;;;;5006964;28;20049;-63
2022/07/16 10:35:30;;;;;;;2.65;1.30;;;;;;;;;;5002424;28;20069;-66
2022/07/16 10:38:08;;;;;;;5.22;1.20;;;;;;;;;;5003952;28;20057;-64
2022/07/16 10:40:36;;;;;;;2.38;1.15;;;;;;;;;;5007121;28;20125;-66
2022/07/16 10:43:14;;;;;;;5.28;1.15;;;;;;;;;;5001439;28;20045;-66
2022/07/16 10:46:02;;;;;;;4.45;1.70;;;;;;;;;;5000180;28;20070;-67
2022/07/16 10:48:37;;;;;;;3.28;1.30;;;;;;;;;;5004742;28;20120;-65
2022/07/16 10:51:24;;;;;;;2.33;1.17;;;;;;;;;;5002444;28;20057;-64
2022/07/16 10:54:05;;;;;;;3.67;1.70;;;;;;;;;;5003337;28;20132;-64
2022/07/16 10:56:45;;;;;;;9.73;1.67;;;;;;;;;;4999071;28;20046;-64
2022/07/16 10:59:13;;;;;;;3.90;1.10;;;;;;;;;;5001083;28;20369;-64
2022/07/16 11:01:40;;;;;;;3.30;1.45;;;;;;;;;;5004594;28;20046;-64
2022/07/16 11:04:07;;;;;;;4.03;1.75;;;;;;;;;;5003675;28;20054;-64
2022/07/16 11:06:33;;;;;;;4.70;1.40;;;;;;;;;;5002327;28;20431;-64
2022/07/16 11:09:00;;;;;;;4.55;1.52;;;;;;;;;;5001971;28;20022;-64
2022/07/16 11:11:32;;;;;;;3.08;1.20;;;;;;;;;;5004655;28;20499;-65
2022/07/16 11:13:58;;;;;;;;;;;;;;;;;;5005557;28;20061;-65
2022/07/16 11:16:24;;;;;;;2.75;1.13;;;;;;;;;;4998996;28;19929;-65
2022/07/16 11:18:49;;;;;;;4.20;1.23;;;;;;;;;;5003116;28;20062;-66
2022/07/16 11:21:15;;;;;;;6.57;1.20;;;;;;;;;;5002527;28;20037;-64
2022/07/16 11:23:47;;;;;;;2.25;1.20;;;;;;;;;;5002851;28;20052;-64
2022/07/16 11:26:13;;;;;;;5.30;1.00;;;;;;;;;;4996355;28;20181;-64
2022/07/16 11:28:55;;;;;;;3.55;1.40;;;;;;;;;;5000906;28;20564;-64
2022/07/16 11:31:32;;;;;;;7.40;1.50;;;;;;;;;;4997707;28;20049;-64
2022/07/16 11:34:04;;;;;;;3.05;1.20;;;;;;;;;;4987829;28;20285;-64
2022/07/16 11:36:32;;;;;;;4.00;1.42;;;;;;;;;;5003370;28;20144;-64
2022/07/16 11:39:02;;;;;;;2.67;1.55;;;;;;;;;;5006568;28;20041;-65
2022/07/16 11:41:28;;;;;;;1.70;1.35;;;;;;;;;;5005180;28;20057;-64
2022/07/16 11:43:54;;;;;;;4.53;2.70;;;;;;;;;;5003164;28;20145;-65
2022/07/16 11:46:23;;;;;;;2.72;1.55;;;;;;;;;;5006216;28;20076;-65
2022/07/16 11:48:48;;;;;;;3.00;1.73;;;;;;;;;;5010252;28;20038;-66
2022/07/16 11:51:14;;;;;;;2.95;1.40;;;;;;;;;;5002538;28;20029;-69
2022/07/16 11:53:39;;;;;;;3.20;1.40;;;;;;;;;;5007724;28;20120;-69
2022/07/16 11:56:06;;;;;;;5.40;1.48;;;;;;;;;;5000488;28;20070;-64
2022/07/16 11:58:32;;;;;;;1.75;1.40;;;;;;;;;;5007493;28;20056;-63
2022/07/16 12:00:58;;;;;;;3.00;1.50;;;;;;;;;;5006998;28;20042;-63
2022/07/16 12:03:24;;;;;;;3.03;1.45;;;;;;;;;;4999176;28;20034;-65
2022/07/16 12:05:59;;;;;;;3.90;1.38;;;;;;;;;;5005582;28;20450;-62
2022/07/16 12:08:25;;;;;;;2.88;1.48;;;;;;;;;;5003841;28;20512;-65
2022/07/16 12:11:02;;;;;;;7.47;1.63;;;;;;;;;;5006553;28;20057;-63
2022/07/16 12:13:27;;;;;;;5.32;1.98;;;;;;;;;;5003451;28;20616;-65
2022/07/16 12:15:57;;;;;;;2.60;1.58;;;;;;;;;;4999805;28;20053;-65
2022/07/16 12:18:23;;;;;;;5.00;1.70;;;;;;;;;;5006494;28;20040;-66
2022/07/16 12:20:50;;;;;;;3.88;1.60;;;;;;;;;;5008589;28;20022;-65
2022/07/16 12:23:31;;;;;;;2.92;1.35;;;;;;;;;;5005456;28;20045;-65
2022/07/16 12:26:02;;;;;;;3.08;1.30;;;;;;;;;;5007691;28;20042;-63
2022/07/16 12:28:27;;;;;;;3.67;1.60;;;;;;;;;;5005896;28;20460;-65
2022/07/16 12:30:58;;;;;;;3.88;1.42;;;;;;;;;;5008288;28;20053;-64
2022/07/16 12:33:27;;;;;;;1.90;1.60;;;;;;;;;;4999985;28;20026;-64
2022/07/16 12:36:02;;;;;;;1.90;1.40;;;;;;;;;;5004862;28;20037;-65
2022/07/16 12:38:58;;;;;;;6.03;1.48;;;;;;;;;;5002795;28;20049;-64
2022/07/16 12:41:28;;;;;;;2.10;1.30;;;;;;;;;;5004328;28;20107;-65
2022/07/16 12:43:57;;;;;;;5.60;1.55;;;;;;;;;;5007625;28;20045;-64
2022/07/16 12:46:29;;;;;;;1.70;1.20;;;;;;;;;;5005655;28;20046;-63
2022/07/16 12:49:03;;;;;;;3.78;1.67;;;;;;;;;;5003662;28;20180;-63
2022/07/16 12:51:32;;;;;;;3.67;1.17;;;;;;;;;;5004948;28;20467;-64
2022/07/16 12:53:59;;;;;;;5.75;1.58;;;;;;;;;;5004177;28;20758;-64
2022/07/16 12:59:11;;;;;;;1.95;1.30;;;;;;;;;;5001540;28;20057;-64
2022/07/16 13:01:37;;;;;;;2.30;1.20;;;;;;;;;;5002359;28;20046;-64
2022/07/16 13:04:04;;;;;;;3.85;1.90;;;;;;;;;;5003135;28;20046;-66
2022/07/16 13:06:31;;;;;;;2.50;1.38;;;;;;;;;;5008319;28;20037;-65
2022/07/16 13:08:56;;;;;;;2.00;1.13;;;;;;;;;;5002153;28;20072;-64
2022/07/16 13:11:23;;;;;;;2.38;1.10;;;;;;;;;;5000927;28;20069;-65
2022/07/16 13:13:50;;;;;;;2.15;1.33;;;;;;;;;;4999420;28;20050;-63
2022/07/16 13:16:17;;;;;;;1.70;0.98;;;;;;;;;;5003934;28;20440;-64
2022/07/16 13:18:44;;;;;;;1.50;1.10;;;;;;;;;;5003693;28;20056;-64
2022/07/16 13:21:09;;;;;;;2.20;1.02;;;;;;;;;;5006043;28;20037;-64
2022/07/16 13:23:36;;;;;;;3.17;1.23;;;;;;;;;;5003890;28;20042;-64
2022/07/16 13:26:02;;;;;;;4.25;1.30;;;;;;;;;;5003458;28;20412;-63
2022/07/16 13:28:27;;;;;;;2.45;1.30;;;;;;;;;;5002589;28;20064;-64
2022/07/16 13:30:53;;;;;;;3.17;1.20;;;;;;;;;;5000117;28;20046;-64
2022/07/16 13:33:19;;;;;;;1.45;1.27;;;;;;;;;;5001551;28;20048;-64
2022/07/16 13:35:45;;;;;;;2.70;1.20;;;;;;;;;;5004215;28;20411;-64
2022/07/16 13:38:11;;;;;;;2.10;1.17;;;;;;;;;;4997023;28;20406;-64
2022/07/16 13:40:36;;;;;;;3.90;1.20;;;;;;;;;;4984544;28;20111;-63
2022/07/16 13:43:02;;;;;;;3.53;1.35;;;;;;;;;;4984435;28;20132;-64
2022/07/16 13:45:28;;;;;;;2.22;1.30;;;;;;;;;;4984703;28;20038;-65
2022/07/16 13:47:55;;;;;;;3.45;1.20;;;;;;;;;;5006622;28;20483;-64
2022/07/16 13:50:21;;;;;;;2.72;1.38;;;;;;;;;;5004383;28;20051;-64
2022/07/16 13:52:46;;;;;;;2.38;1.30;;;;;;;;;;5003167;28;20064;-65
2022/07/16 13:55:15;;;;;;;3.45;1.40;;;;;;;;;;5005262;28;20049;-65
2022/07/16 14:00:28;;;;;;;4.28;1.38;;;;;;;;;;5000597;28;20040;-63
2022/07/16 14:02:57;;;;;;;4.63;1.40;;;;;;;;;;5002617;28;20034;-64
2022/07/16 14:05:23;;;;;;;5.05;1.42;;;;;;;;;;5002797;28;20048;-64
2022/07/16 14:07:49;;;;;;;3.63;1.55;;;;;;;;;;4999802;28;20374;-64
2022/07/16 14:10:15;;;;;;;4.13;1.65;;;;;;;;;;4999141;28;20050;-63
2022/07/16 14:12:42;;;;;;;2.58;1.30;;;;;;;;;;5000998;28;20050;-63
2022/07/16 14:15:09;;;;;;;1.85;1.30;;;;;;;;;;4984941;28;20061;-64
2022/07/16 14:17:36;;;;;;;1.83;1.40;;;;;;;;;;4983917;28;20056;-64
2022/07/16 14:20:04;;;;;;;2.80;1.10;;;;;;;;;;4993664;28;20049;-63
2022/07/16 14:22:30;;;;;;;2.38;1.38;;;;;;;;;;4998518;28;20053;-63
2022/07/16 14:24:59;;;;;;;1.83;1.50;;;;;;;;;;5006679;28;20476;-63
2022/07/16 14:27:25;;;;;;;2.60;1.55;;;;;;;;;;4999478;28;20034;-63
2022/07/16 14:29:52;;;;;;;3.28;1.50;;;;;;;;;;5003722;28;20034;-62
2022/07/16 14:32:19;;;;;;;2.58;1.60;;;;;;;;;;4998185;28;20057;-64
2022/07/16 14:34:45;;;;;;;3.25;1.60;;;;;;;;;;5002515;28;20056;-64
2022/07/16 14:37:11;;;;;;;2.30;1.30;;;;;;;;;;5000323;28;20061;-64
2022/07/16 14:39:36;;;;;;;2.90;1.60;;;;;;;;;;5004085;28;20050;-63
2022/07/16 14:42:02;;;;;;;1.50;1.40;;;;;;;;;;4990595;28;20115;-65
2022/07/16 14:44:27;;;;;;;1.65;1.55;;;;;;;;;;4998985;28;20210;-64
2022/07/16 14:46:53;;;;;;;3.80;1.48;;;;;;;;;;5000925;28;20061;-64
2022/07/16 14:49:19;;;;;;;3.10;1.70;;;;;;;;;;5000846;28;20050;-67
2022/07/16 14:51:44;;;;;;;2.20;1.60;;;;;;;;;;5002774;28;20042;-66
2022/07/16 14:54:10;;;;;;;2.83;1.50;;;;;;;;;;5000867;28;20096;-66
2022/07/16 14:56:37;;;;;;;3.35;1.60;;;;;;;;;;5004588;28;20154;-67